Weil, Louisiana
Current Conditions -  °F | °C
As of 5:53 PM on Saturday 20 Dec 2014 (Local Time) from KAEX Reporting Station
Clear Clear  
Wind Chill: 10°   Ceiling: Unl
Heat Index: 10°   Visibility: 10mi
Dew Point:   Wind: 5mph
Humidity: 80%   Direction: 340°NNW
Pressure: 30.15"   Gusts: NA
Location:  31.2912°N, 92.5491°W
Report Text: KAEX 202353Z 34004KT 10SM CLR 10/07 A3015 RMK AO2 SLP215 60000 T01000067 10133 20094 53005
Loading
Personal Weather Stations






























Interactive Weather Map New forecast layout! Learn more

10-Day Weather Forecast

Advertisements
Track Severe Weather on mobile